createdAt,value
2019-05-15T00:02:18.377Z,30.68
2019-05-15T00:05:19.667Z,29.42
2019-05-15T00:08:21.162Z,35.25
2019-05-15T00:11:22.391Z,33.45
2019-05-15T00:14:24.147Z,31.90
2019-05-15T00:17:25.465Z,33.50
2019-05-15T00:20:29.446Z,34.33
2019-05-15T00:23:30.439Z,35.10
2019-05-15T00:26:31.823Z,35.58
2019-05-15T00:29:33.147Z,31.62
2019-05-15T00:32:34.990Z,34.50
2019-05-15T00:35:38.978Z,33.58
2019-05-15T00:38:39.637Z,30.23
2019-05-15T00:41:50.841Z,33.75
2019-05-15T00:44:44.339Z,34.90
2019-05-15T00:47:45.615Z,33.35
2019-05-15T00:50:48.565Z,31.52
2019-05-15T00:53:49.921Z,33.78
2019-05-15T00:56:51.606Z,37.98
2019-05-15T00:59:52.875Z,32.28
2019-05-15T01:02:54.344Z,34.67
2019-05-15T01:05:55.596Z,33.73
2019-05-15T01:08:58.873Z,33.15
2019-05-15T01:12:00.352Z,34.55
2019-05-15T01:15:03.832Z,31.35
2019-05-15T01:18:05.102Z,30.52
2019-05-15T01:21:08.370Z,31.10
2019-05-15T01:24:09.627Z,34.23
2019-05-15T01:27:11.099Z,32.85
2019-05-15T01:30:12.406Z,32.55
2019-05-15T01:33:13.870Z,32.50
2019-05-15T01:36:15.123Z,37.65
2019-05-15T01:39:18.478Z,37.35
2019-05-15T01:42:19.872Z,36.40
2019-05-15T01:45:21.335Z,33.95
2019-05-15T01:48:22.600Z,31.00
2019-05-15T01:51:23.971Z,37.17
2019-05-15T01:54:25.276Z,36.25
2019-05-15T01:57:28.596Z,34.25
2019-05-15T02:00:29.812Z,34.73
2019-05-15T02:03:31.084Z,35.25
2019-05-15T02:06:32.339Z,33.42
2019-05-15T02:09:34.838Z,38.05
2019-05-15T02:12:38.762Z,32.93
2019-05-15T02:15:39.854Z,33.67
2019-05-15T02:18:41.239Z,36.90
2019-05-15T02:21:42.498Z,34.35
2019-05-15T02:24:44.000Z,34.75
2019-05-15T02:27:45.244Z,33.90
2019-05-15T02:30:50.036Z,36.95
2019-05-15T02:33:50.172Z,31.35
2019-05-15T02:36:51.647Z,32.60
2019-05-15T02:39:52.911Z,33.60
2019-05-15T02:42:54.372Z,37.38
2019-05-15T02:45:55.653Z,36.33
2019-05-15T02:48:59.184Z,38.55
2019-05-15T02:52:00.441Z,35.50
2019-05-15T02:55:03.423Z,35.55
2019-05-15T02:58:04.687Z,39.38
2019-05-15T03:01:09.040Z,42.03
2019-05-15T03:04:09.446Z,40.75
2019-05-15T03:07:10.675Z,35.28
2019-05-15T03:10:14.823Z,42.00
2019-05-15T03:13:18.787Z,40.98
2019-05-15T03:16:19.693Z,42.50
2019-05-15T03:19:21.103Z,45.78
2019-05-15T03:22:22.551Z,44.48
2019-05-15T03:25:23.904Z,48.08
2019-05-15T03:28:25.190Z,46.75
2019-05-15T03:31:43.676Z,39.18
2019-05-15T03:34:37.463Z,45.23
2019-05-15T03:37:34.119Z,45.95
2019-05-15T03:40:55.625Z,49.38
2019-05-15T03:43:59.606Z,46.77
2019-05-15T03:47:00.197Z,53.63
2019-05-15T03:50:02.984Z,46.75
2019-05-15T03:53:04.275Z,47.70
2019-05-15T03:56:05.547Z,50.38
2019-05-15T03:59:09.360Z,57.50
2019-05-15T04:02:10.345Z,50.35
2019-05-15T04:05:12.365Z,55.12
2019-05-15T04:08:13.971Z,53.75
2019-05-15T04:11:15.228Z,56.37
2019-05-15T04:14:19.350Z,54.55
2019-05-15T04:17:20.081Z,61.92
2019-05-15T04:20:21.667Z,56.83
2019-05-15T04:23:22.919Z,60.88
2019-05-15T04:26:28.406Z,67.15
2019-05-15T04:29:29.099Z,65.05
2019-05-15T04:32:30.595Z,63.75
2019-05-15T04:35:31.878Z,61.28
2019-05-15T04:38:33.331Z,59.13
2019-05-15T04:41:35.058Z,62.15
2019-05-15T04:44:39.245Z,59.25
2019-05-15T04:47:40.119Z,55.25
2019-05-15T04:50:41.813Z,55.25
2019-05-15T04:53:43.091Z,59.58
2019-05-15T04:56:44.739Z,60.48
2019-05-15T04:59:46.076Z,60.05
2019-05-15T05:02:49.621Z,57.20
2019-05-15T05:05:51.102Z,61.33
2019-05-15T05:08:52.787Z,56.18
2019-05-15T05:11:54.317Z,62.80
2019-05-15T05:14:55.575Z,63.80
2019-05-15T05:17:58.547Z,58.00
2019-05-15T05:21:00.000Z,60.75
2019-05-15T05:24:01.471Z,64.00
2019-05-15T05:27:02.827Z,58.50
2019-05-15T05:30:04.731Z,57.38
2019-05-15T05:33:08.351Z,62.48
2019-05-15T05:36:09.590Z,60.38
2019-05-15T05:39:13.608Z,59.45
2019-05-15T05:42:14.068Z,61.68
2019-05-15T05:45:18.052Z,68.40
2019-05-15T05:48:19.278Z,69.72
2019-05-15T05:51:20.710Z,63.40
2019-05-15T05:54:23.019Z,57.80
2019-05-15T05:57:24.310Z,61.23
2019-05-15T06:00:34.847Z,64.70
2019-05-15T06:06:38.411Z,59.73
2019-05-15T06:09:39.952Z,63.08
2019-05-15T06:12:41.428Z,57.73
2019-05-15T06:15:42.700Z,61.53
2019-05-15T06:18:44.190Z,55.73
2019-05-15T06:21:54.693Z,47.43
2019-05-15T06:24:49.002Z,44.10
2019-05-15T06:27:51.096Z,41.20
2019-05-15T06:30:53.751Z,42.95
2019-05-15T06:33:55.121Z,35.68
2019-05-15T06:36:58.746Z,39.33
2019-05-15T06:39:59.774Z,30.90
2019-05-15T06:43:01.206Z,33.60
2019-05-15T06:46:02.928Z,28.40
2019-05-15T06:49:04.646Z,27.42
2019-05-15T06:52:05.950Z,29.00
2019-05-15T06:55:09.067Z,21.37
2019-05-15T06:58:10.512Z,22.00
2019-05-15T07:01:12.638Z,22.07
2019-05-15T07:04:13.967Z,21.37
2019-05-15T07:07:18.043Z,22.27
2019-05-15T07:10:18.967Z,20.08
2019-05-15T07:13:20.606Z,18.52
2019-05-15T07:16:22.005Z,20.85
2019-05-15T07:19:23.659Z,18.82
2019-05-15T07:22:25.788Z,22.15
2019-05-15T07:29:18.844Z,18.73
2019-05-15T07:36:00.722Z,18.98
2019-05-15T07:39:08.376Z,13.80
2019-05-15T07:42:13.254Z,17.25
2019-05-15T07:45:19.822Z,11.45
2019-05-15T07:48:31.380Z,13.40
2019-05-15T07:51:37.969Z,11.90
2019-05-15T07:54:38.995Z,12.73
2019-05-15T07:57:41.351Z,9.18
2019-05-15T08:00:43.134Z,10.00
2019-05-15T08:03:56.536Z,11.15
2019-05-15T08:06:54.270Z,10.82
2019-05-15T08:09:58.849Z,11.22
2019-05-15T08:12:59.234Z,10.53
2019-05-15T08:16:00.659Z,8.98
2019-05-15T08:19:02.447Z,10.80
2019-05-15T08:22:04.237Z,12.13
2019-05-15T08:25:07.610Z,11.78
2019-05-15T08:28:09.220Z,13.88
2019-05-15T08:31:11.490Z,11.43
2019-05-15T08:34:16.311Z,12.55
2019-05-15T08:37:18.126Z,13.45
2019-05-15T08:40:20.179Z,11.63
2019-05-15T08:43:22.440Z,15.25
2019-05-15T08:46:23.938Z,13.40
2019-05-15T08:49:25.230Z,11.73
2019-05-15T08:52:28.314Z,11.75
2019-05-15T08:55:29.793Z,19.02
2019-05-15T08:58:31.395Z,19.02
2019-05-15T09:01:32.637Z,17.62
2019-05-15T09:04:35.176Z,16.97
2019-05-15T09:07:38.327Z,16.27
2019-05-15T09:10:41.339Z,12.68
2019-05-15T09:13:44.313Z,12.63
2019-05-15T09:16:48.775Z,16.75
2019-05-15T09:19:49.662Z,11.35
2019-05-15T09:22:51.218Z,8.03
2019-05-15T09:25:52.476Z,9.08
2019-05-15T09:28:53.948Z,8.00
2019-05-15T09:31:55.342Z,8.55
2019-05-15T09:34:59.332Z,8.83
2019-05-15T09:38:00.754Z,7.28
2019-05-15T09:41:02.032Z,9.15
2019-05-15T09:44:03.543Z,9.70
2019-05-15T09:47:04.836Z,7.65
2019-05-15T09:50:09.690Z,7.40
2019-05-15T09:53:11.069Z,9.33
2019-05-15T09:56:12.553Z,8.30
2019-05-15T09:59:13.843Z,7.03
2019-05-15T10:02:15.344Z,8.25
2019-05-15T10:05:18.535Z,9.10
2019-05-15T10:08:21.225Z,7.40
2019-05-15T10:11:22.895Z,6.12
2019-05-15T10:14:25.036Z,7.58
2019-05-15T10:17:33.007Z,8.55
2019-05-15T10:20:34.440Z,6.40
2019-05-15T10:23:36.091Z,8.45
2019-05-15T10:26:39.346Z,13.00
2019-05-15T10:29:40.644Z,11.78
2019-05-15T10:32:42.487Z,11.60
2019-05-15T10:35:43.927Z,9.93
2019-05-15T10:38:45.277Z,10.93
2019-05-15T10:41:48.217Z,7.65
2019-05-15T10:44:50.011Z,8.08
2019-05-15T10:47:51.391Z,8.05
2019-05-15T10:50:52.750Z,11.63
2019-05-15T10:53:54.197Z,11.50
2019-05-15T10:56:55.445Z,5.40
2019-05-15T10:59:58.430Z,5.65
2019-05-15T11:02:59.771Z,4.40
2019-05-15T11:06:01.166Z,4.50
2019-05-15T11:09:04.640Z,5.17
2019-05-15T11:12:08.599Z,4.75
2019-05-15T11:15:11.407Z,4.33
2019-05-15T11:18:12.730Z,4.05
2019-05-15T11:21:14.142Z,4.80
2019-05-15T11:24:15.396Z,3.05
2019-05-15T11:27:18.993Z,3.10
2019-05-15T11:30:27.524Z,3.47
2019-05-15T11:33:33.685Z,3.80
2019-05-15T11:36:34.921Z,2.47
2019-05-15T11:39:44.606Z,5.75
2019-05-15T11:42:39.584Z,5.80
2019-05-15T11:45:41.801Z,3.92
2019-05-15T11:48:43.066Z,3.22
2019-05-15T11:51:44.526Z,4.08
2019-05-15T11:54:45.806Z,3.35
2019-05-15T11:57:50.454Z,3.25
2019-05-15T12:00:50.537Z,3.80
2019-05-15T12:03:54.014Z,5.22
2019-05-15T12:06:59.616Z,4.33
2019-05-15T12:09:58.606Z,4.58
2019-05-15T12:12:59.874Z,5.12
2019-05-15T12:16:01.139Z,4.45
2019-05-15T12:19:09.144Z,4.37
2019-05-15T12:22:05.675Z,5.65
2019-05-15T12:25:09.742Z,4.92
2019-05-15T12:28:11.136Z,6.30
2019-05-15T12:31:12.425Z,5.53
2019-05-15T12:34:14.543Z,6.95
2019-05-15T12:37:15.775Z,6.28
2019-05-15T13:01:41.092Z,8.65
2019-05-15T13:04:42.576Z,9.58
2019-05-15T13:07:43.818Z,10.53
2019-05-15T13:10:45.113Z,13.08
2019-05-15T13:13:48.367Z,10.82
2019-05-15T13:16:49.467Z,9.58
2019-05-15T13:19:51.015Z,8.95
2019-05-15T13:22:53.035Z,8.03
2019-05-15T13:25:54.304Z,7.70
2019-05-15T13:28:58.098Z,8.60
2019-05-15T13:31:59.255Z,8.03
2019-05-15T13:35:00.673Z,7.95
2019-05-15T13:38:02.363Z,9.10
2019-05-15T13:41:06.540Z,8.73
2019-05-15T13:44:09.037Z,9.65
2019-05-15T13:47:10.759Z,9.13
2019-05-15T13:50:11.990Z,8.15
2019-05-15T13:53:15.333Z,8.75
2019-05-15T13:56:18.274Z,8.80
2019-05-15T13:59:20.287Z,12.07
2019-05-15T14:02:22.072Z,13.90
2019-05-15T14:05:24.305Z,11.48
2019-05-15T14:08:28.545Z,10.35
2019-05-15T14:11:30.969Z,11.68
2019-05-15T14:14:33.331Z,9.33
2019-05-15T14:17:35.145Z,8.65
2019-05-15T14:20:38.725Z,8.50
2019-05-15T14:23:40.372Z,9.13
2019-05-15T14:26:41.888Z,8.30
2019-05-15T14:29:43.542Z,8.18
2019-05-15T14:32:44.824Z,8.90
2019-05-15T14:35:48.332Z,14.20
2019-05-15T14:38:51.490Z,8.83
2019-05-15T14:41:53.493Z,8.65
2019-05-15T14:44:55.074Z,9.20
2019-05-15T14:47:58.415Z,8.78
2019-05-15T14:51:02.520Z,10.75
2019-05-15T14:54:08.923Z,7.85
2019-05-15T14:57:14.976Z,8.73
2019-05-15T15:00:20.618Z,8.13
2019-05-15T15:03:23.858Z,8.53
2019-05-15T15:06:26.851Z,8.68
2019-05-15T15:09:33.041Z,9.28
2019-05-15T15:12:39.745Z,10.32
2019-05-15T15:15:43.315Z,8.30
2019-05-15T15:18:48.424Z,8.25
2019-05-15T15:21:58.009Z,9.25
2019-05-15T15:24:59.871Z,10.60
2019-05-15T15:28:02.418Z,11.88
2019-05-15T15:31:06.383Z,11.18
2019-05-15T15:34:10.276Z,11.45
2019-05-15T15:37:13.078Z,10.53
2019-05-15T15:40:15.127Z,11.25
2019-05-15T15:43:17.355Z,10.38
2019-05-15T15:46:20.055Z,10.53
2019-05-15T15:49:22.046Z,9.80
2019-05-15T15:52:28.985Z,10.70
2019-05-15T15:55:30.311Z,10.58
2019-05-15T15:58:33.027Z,17.23
2019-05-15T16:01:36.114Z,18.98
2019-05-15T16:04:39.377Z,15.75
2019-05-15T16:07:43.373Z,20.65
2019-05-15T16:10:44.253Z,19.55
2019-05-15T16:13:46.444Z,15.30
2019-05-15T16:16:48.801Z,24.05
2019-05-15T16:19:50.285Z,20.12
2019-05-15T16:22:52.199Z,15.35
2019-05-15T16:25:53.704Z,19.52
2019-05-15T16:32:11.378Z,20.32
2019-05-15T16:35:20.032Z,20.45
2019-05-15T16:38:21.495Z,21.42
2019-05-15T16:41:23.573Z,23.73
2019-05-15T16:44:25.232Z,27.42
2019-05-15T16:47:28.007Z,29.80
2019-05-15T16:50:30.610Z,27.20
2019-05-15T16:53:31.947Z,25.85
2019-05-15T16:56:37.354Z,26.05
2019-05-15T16:59:39.939Z,30.43
2019-05-15T17:02:42.696Z,32.73
2019-05-15T17:05:44.210Z,31.00
2019-05-15T17:08:45.674Z,36.03
2019-05-15T17:11:49.175Z,45.30
2019-05-15T17:14:51.653Z,52.17
2019-05-15T17:17:53.079Z,48.87
2019-05-15T17:20:54.718Z,55.88
2019-05-15T17:23:58.301Z,42.03
2019-05-15T17:27:00.505Z,43.30
2019-05-15T17:30:02.834Z,39.23
2019-05-15T17:33:04.931Z,44.45
2019-05-15T17:36:06.420Z,43.15
2019-05-15T17:39:09.000Z,43.08
2019-05-15T17:42:10.604Z,50.98
2019-05-15T17:45:12.304Z,52.27
2019-05-15T17:48:19.642Z,48.30
2019-05-15T17:51:21.586Z,43.60
2019-05-15T17:54:23.710Z,48.60
2019-05-15T17:57:28.468Z,46.53
2019-05-15T18:00:30.365Z,41.23
2019-05-15T18:03:32.272Z,46.75
2019-05-15T18:06:39.900Z,50.52
2019-05-15T18:09:51.557Z,48.68
2019-05-15T18:12:44.866Z,44.20
2019-05-15T18:15:46.109Z,51.15
2019-05-15T18:18:47.980Z,44.60
2019-05-15T18:21:50.520Z,45.95
2019-05-15T18:24:52.795Z,45.35
2019-05-15T18:27:58.760Z,47.90
2019-05-15T18:30:58.996Z,56.68
2019-05-15T18:34:00.907Z,54.40
2019-05-15T18:37:04.399Z,56.08
2019-05-15T18:40:11.201Z,51.45
2019-05-15T18:43:13.686Z,56.15
2019-05-15T18:46:18.185Z,55.48
2019-05-15T18:49:21.303Z,53.10
2019-05-15T18:52:23.810Z,56.45
2019-05-15T18:55:27.557Z,58.23
2019-05-15T18:58:29.793Z,53.40
2019-05-15T19:01:31.949Z,53.92
2019-05-15T19:04:33.833Z,55.58
2019-05-15T19:07:38.308Z,55.88
2019-05-15T19:10:39.474Z,58.68
2019-05-15T19:13:40.962Z,55.30
2019-05-15T19:16:42.378Z,50.28
2019-05-15T19:19:45.034Z,54.70
2019-05-15T19:22:48.486Z,54.63
2019-05-15T19:25:50.032Z,60.55
2019-05-15T19:28:52.715Z,58.83
2019-05-15T19:31:54.152Z,53.28
2019-05-15T19:34:55.854Z,61.92
2019-05-15T19:37:58.518Z,75.37
2019-05-15T19:41:03.065Z,59.45
2019-05-15T19:44:04.690Z,61.45
2019-05-15T19:47:07.955Z,61.25
2019-05-15T19:50:09.832Z,59.83
2019-05-15T19:53:13.296Z,60.60
2019-05-15T19:56:14.527Z,51.58
2019-05-15T19:59:21.833Z,56.90
2019-05-15T20:02:19.942Z,50.95
2019-05-15T20:05:22.369Z,58.20
2019-05-15T20:08:23.994Z,60.75
2019-05-15T20:11:27.858Z,56.55
2019-05-15T20:14:29.450Z,62.40
2019-05-15T20:17:30.975Z,60.67
2019-05-15T20:20:32.643Z,59.23
2019-05-15T20:23:34.252Z,66.82
2019-05-15T20:26:38.054Z,72.17
2019-05-15T20:29:39.211Z,67.65
2019-05-15T20:32:41.684Z,75.57
2019-05-15T20:36:02.829Z,66.47
2019-05-15T20:39:04.885Z,60.80
2019-05-15T20:42:09.162Z,72.37
2019-05-15T20:45:12.537Z,71.72
2019-05-15T20:48:14.915Z,75.62
2019-05-15T20:51:18.525Z,75.15
2019-05-15T20:54:20.194Z,83.60
2019-05-15T20:57:21.810Z,75.60
2019-05-15T21:00:23.472Z,63.15
2019-05-15T21:03:26.283Z,59.42
2019-05-15T21:06:28.415Z,67.10
2019-05-15T21:09:30.721Z,62.73
2019-05-15T21:12:33.306Z,67.05
2019-05-15T21:15:35.351Z,58.20
2019-05-15T21:18:38.028Z,59.80
2019-05-15T21:21:39.417Z,60.35
2019-05-15T21:24:40.658Z,60.30
2019-05-15T21:27:43.724Z,89.85
2019-05-15T21:30:45.472Z,73.50
2019-05-15T21:33:48.121Z,55.83
2019-05-15T21:36:52.102Z,67.22
2019-05-15T21:39:53.479Z,82.20
2019-05-15T21:42:54.797Z,84.62
2019-05-15T21:45:56.262Z,90.77
2019-05-15T21:48:57.689Z,98.85
2019-05-15T21:52:00.924Z,73.83
2019-05-15T21:55:03.505Z,74.50
2019-05-15T21:58:04.866Z,77.25
2019-05-15T22:01:08.092Z,67.37
2019-05-15T22:07:29.689Z,77.45
2019-05-15T22:10:32.169Z,76.67
2019-05-15T22:13:34.014Z,83.95
2019-05-15T22:16:36.792Z,72.70
2019-05-15T22:19:38.718Z,72.65
2019-05-15T22:22:40.514Z,79.27
2019-05-15T22:25:43.926Z,66.92
2019-05-15T22:28:45.343Z,63.92
2019-05-15T22:31:48.681Z,66.82
2019-05-15T22:35:05.657Z,60.52
2019-05-15T22:37:54.059Z,56.15
2019-05-15T22:40:56.295Z,62.10
2019-05-15T22:43:57.745Z,63.42
2019-05-15T22:46:59.195Z,57.73
2019-05-15T22:50:00.708Z,57.23
2019-05-15T22:53:02.353Z,63.17
2019-05-15T22:56:03.770Z,64.40
2019-05-15T22:59:05.003Z,65.17
2019-05-15T23:02:09.162Z,58.78
2019-05-15T23:05:23.778Z,58.55
2019-05-15T23:08:13.188Z,50.83
2019-05-15T23:11:14.480Z,52.75
2019-05-15T23:14:17.997Z,55.92
2019-05-15T23:17:19.214Z,52.65
2019-05-15T23:20:20.653Z,50.52
2019-05-15T23:23:22.059Z,51.02
2019-05-15T23:26:23.593Z,46.53
2019-05-15T23:29:25.405Z,49.53
2019-05-15T23:32:28.905Z,49.18
2019-05-15T23:35:37.957Z,49.03
2019-05-15T23:38:33.653Z,53.90
2019-05-15T23:41:34.887Z,55.17
2019-05-15T23:44:38.207Z,54.93
2019-05-15T23:47:39.493Z,50.98
2019-05-15T23:50:41.382Z,46.13
2019-05-15T23:53:42.605Z,54.45
2019-05-15T23:56:43.969Z,44.45
2019-05-15T23:59:47.622Z,48.75
